sensor_id;sensor_type;location;lat;lon;timestamp;pressure;altitude;pressure_sealevel;temperature;humidity
8061;BME280;4073;42.626;25.386;2022-08-11T00:02:32;97174.22;;;22.73;71.42
8061;BME280;4073;42.626;25.386;2022-08-11T00:05:09;97158.63;;;22.74;70.58
8061;BME280;4073;42.626;25.386;2022-08-11T00:07:47;97162.97;;;22.75;71.56
8061;BME280;4073;42.626;25.386;2022-08-11T00:10:24;97167.50;;;22.71;71.66
8061;BME280;4073;42.626;25.386;2022-08-11T00:12:59;97154.97;;;22.66;71.71
8061;BME280;4073;42.626;25.386;2022-08-11T00:15:27;97153.00;;;22.67;71.36
8061;BME280;4073;42.626;25.386;2022-08-11T00:17:58;97146.34;;;22.64;70.76
8061;BME280;4073;42.626;25.386;2022-08-11T00:20:29;97153.47;;;22.69;71.38
8061;BME280;4073;42.626;25.386;2022-08-11T00:23:13;97142.63;;;22.57;70.59
8061;BME280;4073;42.626;25.386;2022-08-11T00:25:45;97157.69;;;22.66;71.42
8061;BME280;4073;42.626;25.386;2022-08-11T00:28:23;97158.91;;;22.69;71.47
8061;BME280;4073;42.626;25.386;2022-08-11T00:30:50;97151.44;;;22.66;70.57
8061;BME280;4073;42.626;25.386;2022-08-11T00:33:18;97158.56;;;22.70;70.12
8061;BME280;4073;42.626;25.386;2022-08-11T00:35:45;97158.81;;;22.65;70.63
8061;BME280;4073;42.626;25.386;2022-08-11T00:38:11;97155.19;;;22.61;70.92
8061;BME280;4073;42.626;25.386;2022-08-11T00:40:43;97160.66;;;22.61;71.15
8061;BME280;4073;42.626;25.386;2022-08-11T00:43:19;97155.13;;;22.58;71.22
8061;BME280;4073;42.626;25.386;2022-08-11T00:48:46;97161.50;;;22.50;69.53
8061;BME280;4073;42.626;25.386;2022-08-11T00:51:42;97167.41;;;22.40;69.17
8061;BME280;4073;42.626;25.386;2022-08-11T01:08:53;97160.53;;;22.03;72.23
8061;BME280;4073;42.626;25.386;2022-08-11T01:40:24;97146.44;;;21.61;74.00
8061;BME280;4073;42.626;25.386;2022-08-11T01:46:27;97139.28;;;21.57;74.66
8061;BME280;4073;42.626;25.386;2022-08-11T01:57:36;97140.97;;;21.85;73.91
8061;BME280;4073;42.626;25.386;2022-08-11T02:00:14;97140.72;;;21.90;73.76
8061;BME280;4073;42.626;25.386;2022-08-11T02:02:57;97143.69;;;21.85;74.02
8061;BME280;4073;42.626;25.386;2022-08-11T02:06:01;97143.56;;;21.82;74.41
8061;BME280;4073;42.626;25.386;2022-08-11T02:09:02;97133.84;;;21.81;74.83
8061;BME280;4073;42.626;25.386;2022-08-11T02:11:32;97143.91;;;21.80;75.03
8061;BME280;4073;42.626;25.386;2022-08-11T02:25:16;97136.78;;;21.52;75.18
8061;BME280;4073;42.626;25.386;2022-08-11T02:27:50;97125.91;;;21.52;75.32
8061;BME280;4073;42.626;25.386;2022-08-11T02:30:23;97135.78;;;21.56;75.07
8061;BME280;4073;42.626;25.386;2022-08-11T02:32:57;97124.34;;;21.63;75.22
8061;BME280;4073;42.626;25.386;2022-08-11T02:38:49;97126.25;;;21.62;74.80
8061;BME280;4073;42.626;25.386;2022-08-11T02:46:57;97131.34;;;21.64;73.46
8061;BME280;4073;42.626;25.386;2022-08-11T02:55:28;97133.94;;;21.60;74.13
8061;BME280;4073;42.626;25.386;2022-08-11T03:01:19;97136.13;;;21.55;73.44
8061;BME280;4073;42.626;25.386;2022-08-11T03:04:03;97136.56;;;21.57;73.04
8061;BME280;4073;42.626;25.386;2022-08-11T03:09:45;97138.75;;;21.51;74.45
8061;BME280;4073;42.626;25.386;2022-08-11T03:12:24;97146.00;;;21.35;75.28
8061;BME280;4073;42.626;25.386;2022-08-11T03:18:17;97136.72;;;21.24;75.88
8061;BME280;4073;42.626;25.386;2022-08-11T03:21:04;97145.09;;;21.19;76.30
8061;BME280;4073;42.626;25.386;2022-08-11T03:23:40;97135.81;;;21.20;75.99
8061;BME280;4073;42.626;25.386;2022-08-11T03:26:29;97144.41;;;21.22;76.41
8061;BME280;4073;42.626;25.386;2022-08-11T03:31:59;97150.75;;;21.26;76.25
8061;BME280;4073;42.626;25.386;2022-08-11T03:34:29;97151.09;;;21.25;76.11
8061;BME280;4073;42.626;25.386;2022-08-11T03:37:24;97149.41;;;21.20;76.34
8061;BME280;4073;42.626;25.386;2022-08-11T03:40:35;97119.03;;;21.06;76.14
8061;BME280;4073;42.626;25.386;2022-08-11T03:52:15;97172.41;;;21.35;75.83
8061;BME280;4073;42.626;25.386;2022-08-11T04:06:08;97166.50;;;21.81;74.71
8061;BME280;4073;42.626;25.386;2022-08-11T04:11:57;97172.47;;;21.98;73.55
8061;BME280;4073;42.626;25.386;2022-08-11T04:14:45;97173.31;;;22.14;71.45
8061;BME280;4073;42.626;25.386;2022-08-11T04:23:24;97163.66;;;22.56;66.57
8061;BME280;4073;42.626;25.386;2022-08-11T04:42:20;97186.13;;;23.12;62.67
8061;BME280;4073;42.626;25.386;2022-08-11T04:45:25;97184.56;;;23.27;60.75
8061;BME280;4073;42.626;25.386;2022-08-11T04:51:14;97195.03;;;23.56;59.85
8061;BME280;4073;42.626;25.386;2022-08-11T04:57:40;97193.72;;;23.84;58.46
8061;BME280;4073;42.626;25.386;2022-08-11T05:06:58;97201.63;;;23.89;56.58
8061;BME280;4073;42.626;25.386;2022-08-11T05:09:53;97197.97;;;23.82;56.14
8061;BME280;4073;42.626;25.386;2022-08-11T05:14:58;97194.53;;;23.69;57.93
8061;BME280;4073;42.626;25.386;2022-08-11T05:17:51;97193.31;;;23.67;57.80
8061;BME280;4073;42.626;25.386;2022-08-11T05:20:55;97192.25;;;23.71;56.94
8061;BME280;4073;42.626;25.386;2022-08-11T05:23:47;97183.38;;;23.74;56.59
8061;BME280;4073;42.626;25.386;2022-08-11T05:26:45;97193.38;;;23.86;55.95
8061;BME280;4073;42.626;25.386;2022-08-11T05:30:06;97197.59;;;23.99;55.92
8061;BME280;4073;42.626;25.386;2022-08-11T05:33:09;97204.44;;;24.08;55.71
8061;BME280;4073;42.626;25.386;2022-08-11T05:36:01;97200.34;;;24.18;54.94
8061;BME280;4073;42.626;25.386;2022-08-11T05:38:33;97193.81;;;24.22;54.68
8061;BME280;4073;42.626;25.386;2022-08-11T05:41:21;97197.53;;;24.33;54.43
8061;BME280;4073;42.626;25.386;2022-08-11T05:44:05;97197.41;;;24.45;53.51
8061;BME280;4073;42.626;25.386;2022-08-11T05:46:50;97204.69;;;24.57;52.97
8061;BME280;4073;42.626;25.386;2022-08-11T05:49:35;97208.84;;;24.70;52.72
8061;BME280;4073;42.626;25.386;2022-08-11T05:52:22;97205.00;;;24.93;52.46
8061;BME280;4073;42.626;25.386;2022-08-11T05:55:09;97189.00;;;25.37;51.04
8061;BME280;4073;42.626;25.386;2022-08-11T05:57:59;97197.16;;;25.60;50.34
8061;BME280;4073;42.626;25.386;2022-08-11T06:00:25;97189.72;;;25.34;50.39
8061;BME280;4073;42.626;25.386;2022-08-11T06:02:56;97189.56;;;24.82;51.58
8061;BME280;4073;42.626;25.386;2022-08-11T06:05:24;97200.84;;;24.61;52.51
8061;BME280;4073;42.626;25.386;2022-08-11T06:07:57;97199.34;;;24.45;53.41
8061;BME280;4073;42.626;25.386;2022-08-11T06:10:31;97200.28;;;24.71;53.39
8061;BME280;4073;42.626;25.386;2022-08-11T06:12:58;97193.41;;;25.23;52.81
8061;BME280;4073;42.626;25.386;2022-08-11T06:15:25;97194.78;;;25.81;50.44
8061;BME280;4073;42.626;25.386;2022-08-11T06:17:51;97182.03;;;26.21;49.71
8061;BME280;4073;42.626;25.386;2022-08-11T06:20:19;97183.78;;;26.36;48.14
8061;BME280;4073;42.626;25.386;2022-08-11T06:22:49;97179.38;;;26.25;48.39
8061;BME280;4073;42.626;25.386;2022-08-11T06:25:19;97189.00;;;26.15;48.47
8061;BME280;4073;42.626;25.386;2022-08-11T06:27:46;97188.91;;;26.08;48.86
8061;BME280;4073;42.626;25.386;2022-08-11T06:30:41;97197.56;;;26.10;49.03
8061;BME280;4073;42.626;25.386;2022-08-11T06:33:20;97187.09;;;26.49;48.21
8061;BME280;4073;42.626;25.386;2022-08-11T06:36:03;97184.41;;;26.89;47.09
8061;BME280;4073;42.626;25.386;2022-08-11T06:41:37;97175.38;;;27.76;44.39
8061;BME280;4073;42.626;25.386;2022-08-11T06:46:38;97173.63;;;28.01;43.29
8061;BME280;4073;42.626;25.386;2022-08-11T06:49:08;97181.25;;;28.35;41.97
8061;BME280;4073;42.626;25.386;2022-08-11T06:52:00;97177.09;;;28.73;41.03
8061;BME280;4073;42.626;25.386;2022-08-11T06:54:35;97176.00;;;29.02;41.06
8061;BME280;4073;42.626;25.386;2022-08-11T06:57:02;97176.03;;;29.30;40.03
8061;BME280;4073;42.626;25.386;2022-08-11T06:59:48;97168.94;;;29.15;39.44
8061;BME280;4073;42.626;25.386;2022-08-11T07:02:36;97168.56;;;29.34;39.74
8061;BME280;4073;42.626;25.386;2022-08-11T07:05:04;97147.72;;;29.29;39.85
8061;BME280;4073;42.626;25.386;2022-08-11T07:14:16;97190.22;;;29.81;38.81
8061;BME280;4073;42.626;25.386;2022-08-11T07:17:07;97178.38;;;29.42;39.23
8061;BME280;4073;42.626;25.386;2022-08-11T07:19:36;97187.84;;;29.51;39.75
8061;BME280;4073;42.626;25.386;2022-08-11T07:22:23;97167.41;;;29.66;38.88
8061;BME280;4073;42.626;25.386;2022-08-11T07:25:14;97183.13;;;29.48;39.44
8061;BME280;4073;42.626;25.386;2022-08-11T07:28:13;97179.19;;;29.70;39.02
8061;BME280;4073;42.626;25.386;2022-08-11T07:31:05;97178.38;;;29.49;38.99
8061;BME280;4073;42.626;25.386;2022-08-11T07:33:43;97174.00;;;28.92;39.44
8061;BME280;4073;42.626;25.386;2022-08-11T07:36:10;97179.59;;;29.27;39.29
8061;BME280;4073;42.626;25.386;2022-08-11T07:38:41;97171.31;;;29.55;39.52
8061;BME280;4073;42.626;25.386;2022-08-11T07:41:11;97174.06;;;29.76;38.59
8061;BME280;4073;42.626;25.386;2022-08-11T07:43:42;97179.97;;;29.74;38.23
8061;BME280;4073;42.626;25.386;2022-08-11T07:46:10;97175.69;;;29.63;39.12
8061;BME280;4073;42.626;25.386;2022-08-11T07:48:55;97183.53;;;29.79;38.73
8061;BME280;4073;42.626;25.386;2022-08-11T07:51:41;97185.03;;;30.11;37.53
8061;BME280;4073;42.626;25.386;2022-08-11T07:54:26;97187.28;;;30.55;37.07
8061;BME280;4073;42.626;25.386;2022-08-11T07:56:52;97174.97;;;30.70;35.94
8061;BME280;4073;42.626;25.386;2022-08-11T07:59:19;97183.91;;;31.02;36.10
8061;BME280;4073;42.626;25.386;2022-08-11T08:02:03;97176.13;;;31.44;35.47
8061;BME280;4073;42.626;25.386;2022-08-11T08:04:48;97180.25;;;31.66;34.90
8061;BME280;4073;42.626;25.386;2022-08-11T08:07:33;97182.31;;;31.59;35.48
8061;BME280;4073;42.626;25.386;2022-08-11T08:10:18;97165.09;;;31.41;34.68
8061;BME280;4073;42.626;25.386;2022-08-11T08:13:04;97168.41;;;31.18;35.88
8061;BME280;4073;42.626;25.386;2022-08-11T08:15:49;97178.00;;;31.00;36.35
8061;BME280;4073;42.626;25.386;2022-08-11T08:18:35;97178.69;;;31.14;35.76
8061;BME280;4073;42.626;25.386;2022-08-11T08:21:02;97173.56;;;31.13;35.79
8061;BME280;4073;42.626;25.386;2022-08-11T08:23:41;97167.91;;;30.72;36.62
8061;BME280;4073;42.626;25.386;2022-08-11T08:26:09;97180.16;;;30.61;37.18
8061;BME280;4073;42.626;25.386;2022-08-11T08:28:56;97188.50;;;30.47;37.20
8061;BME280;4073;42.626;25.386;2022-08-11T08:31:42;97175.16;;;30.28;37.78
8061;BME280;4073;42.626;25.386;2022-08-11T08:34:09;97174.78;;;30.19;38.50
8061;BME280;4073;42.626;25.386;2022-08-11T08:36:36;97179.88;;;30.34;37.25
8061;BME280;4073;42.626;25.386;2022-08-11T08:39:03;97184.13;;;30.60;36.78
8061;BME280;4073;42.626;25.386;2022-08-11T08:41:31;97178.44;;;30.95;36.76
8061;BME280;4073;42.626;25.386;2022-08-11T08:44:01;97179.97;;;30.99;36.34
8061;BME280;4073;42.626;25.386;2022-08-11T08:46:33;97177.09;;;31.17;35.86
8061;BME280;4073;42.626;25.386;2022-08-11T08:49:02;97169.81;;;31.44;35.32
8061;BME280;4073;42.626;25.386;2022-08-11T08:51:30;97178.75;;;31.58;35.49
8061;BME280;4073;42.626;25.386;2022-08-11T08:54:05;97181.28;;;31.90;34.53
8061;BME280;4073;42.626;25.386;2022-08-11T08:56:31;97176.59;;;32.21;33.92
8061;BME280;4073;42.626;25.386;2022-08-11T08:59:01;97178.81;;;32.36;33.84
8061;BME280;4073;42.626;25.386;2022-08-11T09:01:35;97171.03;;;31.87;33.96
8061;BME280;4073;42.626;25.386;2022-08-11T09:04:06;97173.25;;;31.58;34.80
8061;BME280;4073;42.626;25.386;2022-08-11T09:06:34;97179.38;;;31.76;34.64
8061;BME280;4073;42.626;25.386;2022-08-11T09:09:00;97174.59;;;31.87;34.52
8061;BME280;4073;42.626;25.386;2022-08-11T09:11:25;97171.53;;;32.16;34.80
8061;BME280;4073;42.626;25.386;2022-08-11T09:14:10;97162.66;;;32.31;34.23
8061;BME280;4073;42.626;25.386;2022-08-11T09:16:35;97159.16;;;32.24;34.38
8061;BME280;4073;42.626;25.386;2022-08-11T09:19:03;97163.13;;;32.23;34.03
8061;BME280;4073;42.626;25.386;2022-08-11T09:21:29;97158.75;;;32.25;33.88
8061;BME280;4073;42.626;25.386;2022-08-11T09:23:57;97159.81;;;32.38;34.11
8061;BME280;4073;42.626;25.386;2022-08-11T09:26:43;97161.19;;;32.20;34.70
8061;BME280;4073;42.626;25.386;2022-08-11T09:29:27;97160.47;;;32.49;33.58
8061;BME280;4073;42.626;25.386;2022-08-11T09:31:55;97163.97;;;32.53;33.14
8061;BME280;4073;42.626;25.386;2022-08-11T09:34:21;97157.13;;;32.35;34.44
8061;BME280;4073;42.626;25.386;2022-08-11T09:36:48;97148.75;;;32.38;33.73
8061;BME280;4073;42.626;25.386;2022-08-11T09:39:36;97156.72;;;32.33;33.86
8061;BME280;4073;42.626;25.386;2022-08-11T09:42:21;97152.00;;;31.92;34.55
8061;BME280;4073;42.626;25.386;2022-08-11T09:45:10;97141.56;;;31.66;35.90
8061;BME280;4073;42.626;25.386;2022-08-11T09:47:37;97153.94;;;31.99;35.12
8061;BME280;4073;42.626;25.386;2022-08-11T09:50:04;97148.41;;;31.99;34.48
8061;BME280;4073;42.626;25.386;2022-08-11T09:52:34;97146.19;;;31.36;35.61
8061;BME280;4073;42.626;25.386;2022-08-11T09:55:01;97142.50;;;30.98;36.68
8061;BME280;4073;42.626;25.386;2022-08-11T09:57:28;97133.25;;;31.22;35.96
8061;BME280;4073;42.626;25.386;2022-08-11T10:00:13;97141.63;;;31.59;35.63
8061;BME280;4073;42.626;25.386;2022-08-11T10:02:45;97131.59;;;31.35;35.34
8061;BME280;4073;42.626;25.386;2022-08-11T10:05:16;97126.06;;;31.39;35.66
8061;BME280;4073;42.626;25.386;2022-08-11T10:08:01;97140.63;;;31.87;35.08
8061;BME280;4073;42.626;25.386;2022-08-11T10:10:28;97129.41;;;32.01;34.07
8061;BME280;4073;42.626;25.386;2022-08-11T10:13:04;97140.63;;;31.87;34.91
8061;BME280;4073;42.626;25.386;2022-08-11T10:15:31;97136.16;;;32.34;34.49
8061;BME280;4073;42.626;25.386;2022-08-11T10:18:10;97143.44;;;32.81;33.24
8061;BME280;4073;42.626;25.386;2022-08-11T10:20:59;97148.28;;;33.03;33.10
8061;BME280;4073;42.626;25.386;2022-08-11T10:23:30;97144.09;;;33.18;32.79
8061;BME280;4073;42.626;25.386;2022-08-11T10:26:17;97151.78;;;33.34;32.01
8061;BME280;4073;42.626;25.386;2022-08-11T10:29:02;97149.94;;;33.24;31.95
8061;BME280;4073;42.626;25.386;2022-08-11T10:31:50;97149.06;;;33.04;31.93
8061;BME280;4073;42.626;25.386;2022-08-11T10:34:34;97151.22;;;33.19;31.28
8061;BME280;4073;42.626;25.386;2022-08-11T10:37:01;97136.19;;;33.43;31.72
8061;BME280;4073;42.626;25.386;2022-08-11T10:39:27;97144.56;;;33.40;30.89
8061;BME280;4073;42.626;25.386;2022-08-11T10:41:54;97146.28;;;33.30;30.60
8061;BME280;4073;42.626;25.386;2022-08-11T10:44:46;97133.31;;;32.97;31.18
8061;BME280;4073;42.626;25.386;2022-08-11T10:47:15;97144.81;;;32.96;31.26
8061;BME280;4073;42.626;25.386;2022-08-11T10:50:12;97142.94;;;33.16;30.71
8061;BME280;4073;42.626;25.386;2022-08-11T10:52:58;97141.38;;;33.41;31.03
8061;BME280;4073;42.626;25.386;2022-08-11T10:55:44;97129.44;;;33.90;30.84
8061;BME280;4073;42.626;25.386;2022-08-11T10:58:29;97128.47;;;34.40;30.06
8061;BME280;4073;42.626;25.386;2022-08-11T11:01:28;97128.41;;;33.81;29.33
8061;BME280;4073;42.626;25.386;2022-08-11T11:04:11;97124.75;;;34.26;29.57
8061;BME280;4073;42.626;25.386;2022-08-11T11:09:22;97114.44;;;33.65;29.92
8061;BME280;4073;42.626;25.386;2022-08-11T11:11:52;97119.47;;;33.93;30.13
8061;BME280;4073;42.626;25.386;2022-08-11T11:14:40;97113.75;;;34.78;28.83
8061;BME280;4073;42.626;25.386;2022-08-11T11:17:55;97106.31;;;35.43;26.84
8061;BME280;4073;42.626;25.386;2022-08-11T11:20:25;97118.72;;;35.54;27.35
8061;BME280;4073;42.626;25.386;2022-08-11T11:22:54;97113.63;;;35.97;26.68
8061;BME280;4073;42.626;25.386;2022-08-11T11:25:43;97110.53;;;36.08;25.61
8061;BME280;4073;42.626;25.386;2022-08-11T11:34:32;97114.00;;;36.82;24.84
8061;BME280;4073;42.626;25.386;2022-08-11T11:37:01;97108.09;;;36.38;25.35
8061;BME280;4073;42.626;25.386;2022-08-11T11:39:30;97098.97;;;35.01;27.53
8061;BME280;4073;42.626;25.386;2022-08-11T11:41:59;97102.78;;;34.36;29.46
8061;BME280;4073;42.626;25.386;2022-08-11T11:44:26;97107.97;;;34.14;29.46
8061;BME280;4073;42.626;25.386;2022-08-11T11:46:52;97109.47;;;33.99;29.07
8061;BME280;4073;42.626;25.386;2022-08-11T11:49:22;97107.03;;;34.01;28.58
8061;BME280;4073;42.626;25.386;2022-08-11T11:51:49;97099.09;;;33.80;29.41
8061;BME280;4073;42.626;25.386;2022-08-11T11:54:24;97110.59;;;33.78;28.98
8061;BME280;4073;42.626;25.386;2022-08-11T13:39:17;97041.13;;;32.74;30.65
8061;BME280;4073;42.626;25.386;2022-08-11T13:41:43;97032.81;;;32.47;30.97
8061;BME280;4073;42.626;25.386;2022-08-11T13:44:13;97036.00;;;32.46;32.07
8061;BME280;4073;42.626;25.386;2022-08-11T13:46:40;97043.50;;;32.15;31.76
8061;BME280;4073;42.626;25.386;2022-08-11T13:49:07;97024.31;;;32.01;33.03
8061;BME280;4073;42.626;25.386;2022-08-11T13:51:35;97033.69;;;32.11;32.63
8061;BME280;4073;42.626;25.386;2022-08-11T13:54:16;97034.00;;;31.86;32.20
8061;BME280;4073;42.626;25.386;2022-08-11T13:56:47;97038.66;;;31.55;33.02
8061;BME280;4073;42.626;25.386;2022-08-11T13:59:18;97048.50;;;31.16;33.85
8061;BME280;4073;42.626;25.386;2022-08-11T14:01:48;97035.91;;;31.11;34.11
8061;BME280;4073;42.626;25.386;2022-08-11T14:07:06;97045.94;;;31.39;33.21
8061;BME280;4073;42.626;25.386;2022-08-11T14:09:39;97040.59;;;31.58;33.35
8061;BME280;4073;42.626;25.386;2022-08-11T14:12:26;97045.63;;;31.67;33.36
8061;BME280;4073;42.626;25.386;2022-08-11T14:17:53;97052.63;;;31.78;32.87
8061;BME280;4073;42.626;25.386;2022-08-11T14:20:21;97050.78;;;31.28;33.68
8061;BME280;4073;42.626;25.386;2022-08-11T14:22:48;97058.00;;;31.11;33.70
8061;BME280;4073;42.626;25.386;2022-08-11T14:25:15;97056.22;;;30.91;34.69
8061;BME280;4073;42.626;25.386;2022-08-11T14:27:44;97055.47;;;30.80;34.71
8061;BME280;4073;42.626;25.386;2022-08-11T14:30:13;97062.00;;;30.45;35.41
8061;BME280;4073;42.626;25.386;2022-08-11T14:33:00;97060.19;;;30.21;35.92
8061;BME280;4073;42.626;25.386;2022-08-11T14:35:27;97064.91;;;30.10;36.55
8061;BME280;4073;42.626;25.386;2022-08-11T14:37:54;97066.19;;;29.85;37.18
8061;BME280;4073;42.626;25.386;2022-08-11T14:40:21;97058.41;;;29.41;38.81
8061;BME280;4073;42.626;25.386;2022-08-11T14:43:05;97056.84;;;28.98;39.48
8061;BME280;4073;42.626;25.386;2022-08-11T14:45:50;97059.97;;;28.96;39.16
8061;BME280;4073;42.626;25.386;2022-08-11T14:48:34;97063.53;;;29.00;39.03
8061;BME280;4073;42.626;25.386;2022-08-11T14:51:02;97058.06;;;29.14;39.45
8061;BME280;4073;42.626;25.386;2022-08-11T14:53:30;97059.22;;;29.17;39.20
8061;BME280;4073;42.626;25.386;2022-08-11T14:55:56;97056.88;;;29.19;38.59
8061;BME280;4073;42.626;25.386;2022-08-11T14:58:41;97063.19;;;29.09;39.21
8061;BME280;4073;42.626;25.386;2022-08-11T15:01:07;97056.47;;;29.13;38.81
8061;BME280;4073;42.626;25.386;2022-08-11T15:03:54;97065.13;;;29.19;38.75
8061;BME280;4073;42.626;25.386;2022-08-11T15:06:20;97060.41;;;29.05;39.13
8061;BME280;4073;42.626;25.386;2022-08-11T15:08:46;97062.00;;;29.20;38.79
8061;BME280;4073;42.626;25.386;2022-08-11T15:11:28;97058.03;;;29.35;38.64
8061;BME280;4073;42.626;25.386;2022-08-11T15:14:13;97067.47;;;29.31;38.38
8061;BME280;4073;42.626;25.386;2022-08-11T15:16:59;97060.78;;;29.25;38.95
8061;BME280;4073;42.626;25.386;2022-08-11T15:19:36;97065.50;;;29.31;38.04
8061;BME280;4073;42.626;25.386;2022-08-11T15:22:23;97069.84;;;29.08;38.22
8061;BME280;4073;42.626;25.386;2022-08-11T15:25:06;97067.44;;;28.92;38.02
8061;BME280;4073;42.626;25.386;2022-08-11T15:27:34;97061.16;;;28.88;38.42
8061;BME280;4073;42.626;25.386;2022-08-11T15:30:19;97067.06;;;28.87;38.67
8061;BME280;4073;42.626;25.386;2022-08-11T15:33:06;97064.31;;;28.76;38.75
8061;BME280;4073;42.626;25.386;2022-08-11T15:35:52;97058.03;;;28.83;39.06
8061;BME280;4073;42.626;25.386;2022-08-11T15:38:43;97065.03;;;28.52;39.50
8061;BME280;4073;42.626;25.386;2022-08-11T15:41:14;97059.97;;;28.58;39.88
8061;BME280;4073;42.626;25.386;2022-08-11T15:44:01;97037.56;;;28.49;39.46
8061;BME280;4073;42.626;25.386;2022-08-11T15:46:50;97051.72;;;28.65;39.67
8061;BME280;4073;42.626;25.386;2022-08-11T15:49:29;97059.94;;;28.54;40.15
8061;BME280;4073;42.626;25.386;2022-08-11T15:52:17;97067.41;;;28.54;39.97
8061;BME280;4073;42.626;25.386;2022-08-11T15:54:43;97063.41;;;28.30;40.61
8061;BME280;4073;42.626;25.386;2022-08-11T15:57:11;97068.13;;;28.37;40.55
8061;BME280;4073;42.626;25.386;2022-08-11T16:00:02;97057.94;;;28.34;40.53
8061;BME280;4073;42.626;25.386;2022-08-11T16:02:49;97069.31;;;28.32;40.33
8061;BME280;4073;42.626;25.386;2022-08-11T16:05:35;97067.31;;;28.26;40.75
8061;BME280;4073;42.626;25.386;2022-08-11T16:08:03;97071.25;;;28.25;40.28
8061;BME280;4073;42.626;25.386;2022-08-11T16:10:29;97070.44;;;28.17;40.46
8061;BME280;4073;42.626;25.386;2022-08-11T16:13:04;97072.78;;;28.19;40.44
8061;BME280;4073;42.626;25.386;2022-08-11T16:15:31;97063.34;;;28.13;40.75
8061;BME280;4073;42.626;25.386;2022-08-11T16:18:19;97068.03;;;28.05;41.36
8061;BME280;4073;42.626;25.386;2022-08-11T16:20:49;97070.41;;;28.07;41.54
8061;BME280;4073;42.626;25.386;2022-08-11T16:23:16;97070.41;;;28.07;41.93
8061;BME280;4073;42.626;25.386;2022-08-11T16:25:44;97066.03;;;27.99;41.22
8061;BME280;4073;42.626;25.386;2022-08-11T16:28:12;97070.31;;;27.89;42.24
8061;BME280;4073;42.626;25.386;2022-08-11T16:30:39;97077.38;;;27.87;42.12
8061;BME280;4073;42.626;25.386;2022-08-11T16:33:08;97080.03;;;27.76;41.71
8061;BME280;4073;42.626;25.386;2022-08-11T16:35:36;97072.06;;;27.57;42.09
8061;BME280;4073;42.626;25.386;2022-08-11T16:38:23;97078.31;;;27.51;41.74
8061;BME280;4073;42.626;25.386;2022-08-11T16:41:21;97073.09;;;27.31;43.09
8061;BME280;4073;42.626;25.386;2022-08-11T16:44:07;97075.06;;;27.34;43.03
8061;BME280;4073;42.626;25.386;2022-08-11T16:46:51;97072.72;;;27.33;42.72
8061;BME280;4073;42.626;25.386;2022-08-11T16:49:27;97077.06;;;27.34;42.92
8061;BME280;4073;42.626;25.386;2022-08-11T16:51:54;97083.13;;;27.10;42.67
8061;BME280;4073;42.626;25.386;2022-08-11T16:54:20;97086.38;;;27.22;43.00
8061;BME280;4073;42.626;25.386;2022-08-11T16:56:49;97087.06;;;27.12;42.96
8061;BME280;4073;42.626;25.386;2022-08-11T16:59:36;97095.06;;;27.31;42.76
8061;BME280;4073;42.626;25.386;2022-08-11T17:02:15;97094.78;;;27.47;42.14
8061;BME280;4073;42.626;25.386;2022-08-11T17:05:02;97102.69;;;27.59;42.02
8061;BME280;4073;42.626;25.386;2022-08-11T17:07:50;97114.00;;;27.47;42.56
8061;BME280;4073;42.626;25.386;2022-08-11T17:10:40;97104.16;;;27.42;42.78
8061;BME280;4073;42.626;25.386;2022-08-11T17:13:47;97108.44;;;27.36;42.06
8061;BME280;4073;42.626;25.386;2022-08-11T17:16:19;97104.88;;;27.32;41.63
8061;BME280;4073;42.626;25.386;2022-08-11T17:19:04;97113.13;;;27.32;42.02
8061;BME280;4073;42.626;25.386;2022-08-11T17:21:42;97108.19;;;27.08;41.87
8061;BME280;4073;42.626;25.386;2022-08-11T17:24:29;97109.97;;;26.90;42.47
8061;BME280;4073;42.626;25.386;2022-08-11T17:26:56;97114.63;;;26.83;42.50
8061;BME280;4073;42.626;25.386;2022-08-11T17:32:11;97119.00;;;26.91;42.13
8061;BME280;4073;42.626;25.386;2022-08-11T17:35:00;97122.94;;;26.90;42.34
8061;BME280;4073;42.626;25.386;2022-08-11T17:37:46;97113.38;;;26.77;42.87
8061;BME280;4073;42.626;25.386;2022-08-11T17:40:14;97119.19;;;26.68;43.00
8061;BME280;4073;42.626;25.386;2022-08-11T17:42:42;97110.22;;;26.71;42.97
8061;BME280;4073;42.626;25.386;2022-08-11T17:45:27;97123.94;;;26.75;42.55
8061;BME280;4073;42.626;25.386;2022-08-11T17:48:12;97116.09;;;26.73;43.26
8061;BME280;4073;42.626;25.386;2022-08-11T17:51:00;97128.22;;;26.72;43.51
8061;BME280;4073;42.626;25.386;2022-08-11T17:53:30;97124.72;;;26.75;43.11
8061;BME280;4073;42.626;25.386;2022-08-11T17:56:15;97136.09;;;26.74;43.56
8061;BME280;4073;42.626;25.386;2022-08-11T17:59:01;97129.81;;;26.73;43.14
8061;BME280;4073;42.626;25.386;2022-08-11T18:01:47;97137.19;;;26.66;43.25
8061;BME280;4073;42.626;25.386;2022-08-11T18:04:14;97134.97;;;26.45;43.97
8061;BME280;4073;42.626;25.386;2022-08-11T18:06:42;97142.94;;;26.57;43.85
8061;BME280;4073;42.626;25.386;2022-08-11T18:09:19;97141.72;;;26.55;43.88
8061;BME280;4073;42.626;25.386;2022-08-11T18:12:06;97149.63;;;26.60;43.67
8061;BME280;4073;42.626;25.386;2022-08-11T18:14:52;97153.47;;;26.55;44.03
8061;BME280;4073;42.626;25.386;2022-08-11T18:17:37;97150.28;;;26.50;44.40
8061;BME280;4073;42.626;25.386;2022-08-11T18:20:23;97147.53;;;26.50;43.99
8061;BME280;4073;42.626;25.386;2022-08-11T18:23:15;97150.00;;;26.58;43.72
8061;BME280;4073;42.626;25.386;2022-08-11T18:26:03;97151.56;;;26.59;43.54
8061;BME280;4073;42.626;25.386;2022-08-11T18:28:50;97154.31;;;26.59;43.56
8061;BME280;4073;42.626;25.386;2022-08-11T18:31:43;97164.59;;;26.36;44.37
8061;BME280;4073;42.626;25.386;2022-08-11T18:34:32;97161.00;;;26.29;44.90
8061;BME280;4073;42.626;25.386;2022-08-11T18:37:26;97151.19;;;26.28;44.84
8061;BME280;4073;42.626;25.386;2022-08-11T18:40:18;97163.88;;;26.39;44.89
8061;BME280;4073;42.626;25.386;2022-08-11T18:43:06;97164.97;;;26.35;45.20
8061;BME280;4073;42.626;25.386;2022-08-11T18:45:52;97156.88;;;26.45;45.02
8061;BME280;4073;42.626;25.386;2022-08-11T18:48:49;97163.00;;;26.32;45.41
8061;BME280;4073;42.626;25.386;2022-08-11T18:51:35;97167.53;;;26.21;45.37
8061;BME280;4073;42.626;25.386;2022-08-11T18:54:21;97154.56;;;26.14;45.83
8061;BME280;4073;42.626;25.386;2022-08-11T18:57:08;97179.22;;;26.14;46.06
8061;BME280;4073;42.626;25.386;2022-08-11T18:59:52;97179.22;;;26.14;45.88